sensor_id;sensor_type;location;lat;lon;timestamp;P1;durP1;ratioP1;P2;durP2;ratioP2
46589;SDS011;32313;48.722;9.362;2023-08-31T00:02:09;6.93;;;5.27;;
46589;SDS011;32313;48.722;9.362;2023-08-31T00:04:35;5.50;;;5.10;;
46589;SDS011;32313;48.722;9.362;2023-08-31T00:07:01;7.50;;;5.63;;
46589;SDS011;32313;48.722;9.362;2023-08-31T00:09:27;6.23;;;5.30;;
46589;SDS011;32313;48.722;9.362;2023-08-31T00:11:52;5.27;;;4.73;;
46589;SDS011;32313;48.722;9.362;2023-08-31T00:14:18;5.40;;;5.00;;
46589;SDS011;32313;48.722;9.362;2023-08-31T00:16:44;5.13;;;4.73;;
46589;SDS011;32313;48.722;9.362;2023-08-31T00:19:11;6.30;;;5.03;;
46589;SDS011;32313;48.722;9.362;2023-08-31T00:21:39;6.23;;;5.20;;
46589;SDS011;32313;48.722;9.362;2023-08-31T00:24:05;5.87;;;5.27;;
46589;SDS011;32313;48.722;9.362;2023-08-31T00:26:32;5.63;;;5.13;;
46589;SDS011;32313;48.722;9.362;2023-08-31T00:28:58;6.77;;;5.83;;
46589;SDS011;32313;48.722;9.362;2023-08-31T00:31:24;7.33;;;5.93;;
46589;SDS011;32313;48.722;9.362;2023-08-31T00:33:51;6.77;;;6.00;;
46589;SDS011;32313;48.722;9.362;2023-08-31T00:36:17;7.60;;;5.87;;
46589;SDS011;32313;48.722;9.362;2023-08-31T00:38:43;6.10;;;5.50;;
46589;SDS011;32313;48.722;9.362;2023-08-31T00:41:09;6.90;;;6.20;;
46589;SDS011;32313;48.722;9.362;2023-08-31T00:43:35;6.17;;;5.67;;
46589;SDS011;32313;48.722;9.362;2023-08-31T00:46:01;5.73;;;5.30;;
46589;SDS011;32313;48.722;9.362;2023-08-31T00:48:27;7.00;;;6.20;;
46589;SDS011;32313;48.722;9.362;2023-08-31T00:50:53;6.07;;;5.50;;
46589;SDS011;32313;48.722;9.362;2023-08-31T00:53:19;6.53;;;5.97;;
46589;SDS011;32313;48.722;9.362;2023-08-31T00:55:46;6.00;;;5.50;;
46589;SDS011;32313;48.722;9.362;2023-08-31T00:58:13;6.67;;;5.67;;
46589;SDS011;32313;48.722;9.362;2023-08-31T01:03:27;8.10;;;6.60;;
46589;SDS011;32313;48.722;9.362;2023-08-31T01:06:15;6.70;;;6.10;;
46589;SDS011;32313;48.722;9.362;2023-08-31T01:08:56;7.00;;;5.60;;
46589;SDS011;32313;48.722;9.362;2023-08-31T01:14:24;6.80;;;6.00;;
46589;SDS011;32313;48.722;9.362;2023-08-31T01:16:54;7.07;;;6.33;;
46589;SDS011;32313;48.722;9.362;2023-08-31T01:19:34;6.17;;;5.67;;
46589;SDS011;32313;48.722;9.362;2023-08-31T01:22:09;6.30;;;5.70;;
46589;SDS011;32313;48.722;9.362;2023-08-31T01:24:42;7.43;;;6.67;;
46589;SDS011;32313;48.722;9.362;2023-08-31T01:27:08;8.00;;;6.50;;
46589;SDS011;32313;48.722;9.362;2023-08-31T01:29:35;8.03;;;6.90;;
46589;SDS011;32313;48.722;9.362;2023-08-31T01:32:04;10.47;;;7.37;;
46589;SDS011;32313;48.722;9.362;2023-08-31T01:34:31;6.53;;;5.87;;
46589;SDS011;32313;48.722;9.362;2023-08-31T01:36:58;8.87;;;6.50;;
46589;SDS011;32313;48.722;9.362;2023-08-31T01:39:39;7.17;;;6.57;;
46589;SDS011;32313;48.722;9.362;2023-08-31T01:42:09;9.70;;;7.80;;
46589;SDS011;32313;48.722;9.362;2023-08-31T01:44:38;7.70;;;7.00;;
46589;SDS011;32313;48.722;9.362;2023-08-31T01:47:05;7.83;;;6.60;;
46589;SDS011;32313;48.722;9.362;2023-08-31T01:49:50;8.40;;;7.60;;
46589;SDS011;32313;48.722;9.362;2023-08-31T01:52:16;8.53;;;7.67;;
46589;SDS011;32313;48.722;9.362;2023-08-31T01:54:42;7.57;;;6.87;;
46589;SDS011;32313;48.722;9.362;2023-08-31T01:57:07;9.90;;;7.87;;
46589;SDS011;32313;48.722;9.362;2023-08-31T01:59:43;8.87;;;7.40;;
46589;SDS011;32313;48.722;9.362;2023-08-31T02:02:09;10.47;;;8.30;;
46589;SDS011;32313;48.722;9.362;2023-08-31T02:04:35;8.40;;;7.50;;
46589;SDS011;32313;48.722;9.362;2023-08-31T02:07:00;8.83;;;8.03;;
46589;SDS011;32313;48.722;9.362;2023-08-31T02:09:26;8.20;;;7.40;;
46589;SDS011;32313;48.722;9.362;2023-08-31T02:11:52;9.50;;;8.60;;
46589;SDS011;32313;48.722;9.362;2023-08-31T02:14:17;9.13;;;8.07;;
46589;SDS011;32313;48.722;9.362;2023-08-31T02:16:43;10.73;;;9.03;;
46589;SDS011;32313;48.722;9.362;2023-08-31T02:19:09;10.10;;;8.90;;
46589;SDS011;32313;48.722;9.362;2023-08-31T02:21:36;8.97;;;8.10;;
46589;SDS011;32313;48.722;9.362;2023-08-31T02:24:02;9.73;;;8.83;;
46589;SDS011;32313;48.722;9.362;2023-08-31T02:26:28;8.57;;;7.83;;
46589;SDS011;32313;48.722;9.362;2023-08-31T02:28:53;12.80;;;9.97;;
46589;SDS011;32313;48.722;9.362;2023-08-31T02:31:19;10.57;;;9.57;;
46589;SDS011;32313;48.722;9.362;2023-08-31T02:33:46;8.83;;;8.00;;
46589;SDS011;32313;48.722;9.362;2023-08-31T02:36:12;9.80;;;8.80;;
46589;SDS011;32313;48.722;9.362;2023-08-31T02:38:38;9.93;;;9.00;;
46589;SDS011;32313;48.722;9.362;2023-08-31T02:41:05;9.20;;;8.27;;
46589;SDS011;32313;48.722;9.362;2023-08-31T02:43:31;10.00;;;9.00;;
46589;SDS011;32313;48.722;9.362;2023-08-31T02:46:00;12.07;;;9.00;;
46589;SDS011;32313;48.722;9.362;2023-08-31T02:48:26;12.03;;;9.80;;
46589;SDS011;32313;48.722;9.362;2023-08-31T02:50:53;9.60;;;8.60;;
46589;SDS011;32313;48.722;9.362;2023-08-31T02:53:19;9.80;;;8.80;;
46589;SDS011;32313;48.722;9.362;2023-08-31T02:55:44;10.07;;;8.90;;
46589;SDS011;32313;48.722;9.362;2023-08-31T02:58:10;9.93;;;8.93;;
46589;SDS011;32313;48.722;9.362;2023-08-31T03:00:36;11.97;;;9.10;;
46589;SDS011;32313;48.722;9.362;2023-08-31T03:03:08;9.53;;;8.57;;
46589;SDS011;32313;48.722;9.362;2023-08-31T03:05:33;9.63;;;8.80;;
46589;SDS011;32313;48.722;9.362;2023-08-31T03:07:59;10.53;;;9.43;;
46589;SDS011;32313;48.722;9.362;2023-08-31T03:10:25;10.13;;;9.13;;
46589;SDS011;32313;48.722;9.362;2023-08-31T03:12:51;9.77;;;8.73;;
46589;SDS011;32313;48.722;9.362;2023-08-31T03:15:17;9.13;;;8.13;;
46589;SDS011;32313;48.722;9.362;2023-08-31T03:17:42;9.37;;;8.40;;
46589;SDS011;32313;48.722;9.362;2023-08-31T03:20:09;9.70;;;8.83;;
46589;SDS011;32313;48.722;9.362;2023-08-31T03:22:35;10.27;;;9.33;;
46589;SDS011;32313;48.722;9.362;2023-08-31T03:25:01;10.10;;;8.30;;
46589;SDS011;32313;48.722;9.362;2023-08-31T03:27:27;11.13;;;9.73;;
46589;SDS011;32313;48.722;9.362;2023-08-31T03:29:53;11.80;;;9.13;;
46589;SDS011;32313;48.722;9.362;2023-08-31T03:32:18;12.13;;;10.67;;
46589;SDS011;32313;48.722;9.362;2023-08-31T03:34:44;10.90;;;9.63;;
46589;SDS011;32313;48.722;9.362;2023-08-31T03:37:10;11.37;;;10.17;;
46589;SDS011;32313;48.722;9.362;2023-08-31T03:39:37;9.37;;;8.50;;
46589;SDS011;32313;48.722;9.362;2023-08-31T03:42:03;10.80;;;8.83;;
46589;SDS011;32313;48.722;9.362;2023-08-31T03:44:29;10.47;;;9.43;;
46589;SDS011;32313;48.722;9.362;2023-08-31T03:46:54;13.87;;;10.03;;
46589;SDS011;32313;48.722;9.362;2023-08-31T03:49:20;11.80;;;10.03;;
46589;SDS011;32313;48.722;9.362;2023-08-31T03:51:46;13.13;;;9.60;;
46589;SDS011;32313;48.722;9.362;2023-08-31T03:54:12;11.60;;;9.73;;
46589;SDS011;32313;48.722;9.362;2023-08-31T03:56:38;10.00;;;9.10;;
46589;SDS011;32313;48.722;9.362;2023-08-31T03:59:05;10.07;;;9.17;;
46589;SDS011;32313;48.722;9.362;2023-08-31T04:01:32;12.50;;;10.00;;
46589;SDS011;32313;48.722;9.362;2023-08-31T04:03:58;10.93;;;9.83;;
46589;SDS011;32313;48.722;9.362;2023-08-31T04:06:24;12.97;;;10.50;;
46589;SDS011;32313;48.722;9.362;2023-08-31T04:08:49;9.77;;;8.87;;
46589;SDS011;32313;48.722;9.362;2023-08-31T04:11:16;13.03;;;11.37;;
46589;SDS011;32313;48.722;9.362;2023-08-31T04:13:41;10.77;;;9.70;;
46589;SDS011;32313;48.722;9.362;2023-08-31T04:16:07;12.57;;;11.13;;
46589;SDS011;32313;48.722;9.362;2023-08-31T04:18:33;9.97;;;8.97;;
46589;SDS011;32313;48.722;9.362;2023-08-31T04:20:58;10.97;;;9.87;;
46589;SDS011;32313;48.722;9.362;2023-08-31T04:23:26;10.80;;;9.90;;
46589;SDS011;32313;48.722;9.362;2023-08-31T04:25:52;12.27;;;10.87;;
46589;SDS011;32313;48.722;9.362;2023-08-31T04:28:18;12.23;;;11.13;;
46589;SDS011;32313;48.722;9.362;2023-08-31T04:30:44;12.17;;;11.00;;
46589;SDS011;32313;48.722;9.362;2023-08-31T04:33:10;13.37;;;11.07;;
46589;SDS011;32313;48.722;9.362;2023-08-31T04:35:35;12.17;;;10.97;;
46589;SDS011;32313;48.722;9.362;2023-08-31T04:38:01;12.37;;;11.17;;
46589;SDS011;32313;48.722;9.362;2023-08-31T04:40:27;13.60;;;10.70;;
46589;SDS011;32313;48.722;9.362;2023-08-31T04:42:56;12.93;;;11.23;;
46589;SDS011;32313;48.722;9.362;2023-08-31T04:45:22;12.17;;;11.03;;
46589;SDS011;32313;48.722;9.362;2023-08-31T04:47:48;14.77;;;11.47;;
46589;SDS011;32313;48.722;9.362;2023-08-31T04:50:15;12.57;;;11.27;;
46589;SDS011;32313;48.722;9.362;2023-08-31T04:52:42;15.87;;;12.83;;
46589;SDS011;32313;48.722;9.362;2023-08-31T04:55:08;12.53;;;11.33;;
46589;SDS011;32313;48.722;9.362;2023-08-31T04:57:34;12.13;;;10.93;;
46589;SDS011;32313;48.722;9.362;2023-08-31T04:59:59;12.03;;;10.80;;
46589;SDS011;32313;48.722;9.362;2023-08-31T05:02:25;15.83;;;12.20;;
46589;SDS011;32313;48.722;9.362;2023-08-31T05:04:51;11.67;;;9.97;;
46589;SDS011;32313;48.722;9.362;2023-08-31T05:07:16;12.60;;;11.30;;
46589;SDS011;32313;48.722;9.362;2023-08-31T05:09:42;12.17;;;11.00;;
46589;SDS011;32313;48.722;9.362;2023-08-31T05:12:08;15.83;;;11.97;;
46589;SDS011;32313;48.722;9.362;2023-08-31T05:14:33;12.60;;;11.27;;
46589;SDS011;32313;48.722;9.362;2023-08-31T05:17:03;11.60;;;10.43;;
46589;SDS011;32313;48.722;9.362;2023-08-31T05:19:30;13.67;;;11.53;;
46589;SDS011;32313;48.722;9.362;2023-08-31T05:21:55;14.40;;;11.57;;
46589;SDS011;32313;48.722;9.362;2023-08-31T05:24:21;13.50;;;12.00;;
46589;SDS011;32313;48.722;9.362;2023-08-31T05:26:47;13.43;;;12.20;;
46589;SDS011;32313;48.722;9.362;2023-08-31T05:29:13;14.17;;;12.00;;
46589;SDS011;32313;48.722;9.362;2023-08-31T05:31:39;15.23;;;11.93;;
46589;SDS011;32313;48.722;9.362;2023-08-31T05:34:05;13.40;;;11.40;;
46589;SDS011;32313;48.722;9.362;2023-08-31T05:36:30;13.57;;;11.90;;
46589;SDS011;32313;48.722;9.362;2023-08-31T05:38:56;13.40;;;11.03;;
46589;SDS011;32313;48.722;9.362;2023-08-31T05:41:22;11.50;;;10.30;;
46589;SDS011;32313;48.722;9.362;2023-08-31T05:43:48;14.37;;;12.00;;
46589;SDS011;32313;48.722;9.362;2023-08-31T05:46:13;12.97;;;11.77;;
46589;SDS011;32313;48.722;9.362;2023-08-31T05:48:39;11.57;;;9.90;;
46589;SDS011;32313;48.722;9.362;2023-08-31T05:51:04;12.43;;;10.50;;
46589;SDS011;32313;48.722;9.362;2023-08-31T05:53:30;11.23;;;10.13;;
46589;SDS011;32313;48.722;9.362;2023-08-31T05:55:56;13.00;;;10.80;;
46589;SDS011;32313;48.722;9.362;2023-08-31T05:58:32;11.50;;;10.33;;
46589;SDS011;32313;48.722;9.362;2023-08-31T06:00:58;13.83;;;11.33;;
46589;SDS011;32313;48.722;9.362;2023-08-31T06:03:24;13.40;;;11.47;;
46589;SDS011;32313;48.722;9.362;2023-08-31T06:05:50;11.83;;;10.47;;
46589;SDS011;32313;48.722;9.362;2023-08-31T06:08:16;12.13;;;10.93;;
46589;SDS011;32313;48.722;9.362;2023-08-31T06:10:42;12.40;;;9.60;;
46589;SDS011;32313;48.722;9.362;2023-08-31T06:13:07;12.10;;;10.17;;
46589;SDS011;32313;48.722;9.362;2023-08-31T06:15:33;12.30;;;10.60;;
46589;SDS011;32313;48.722;9.362;2023-08-31T06:17:59;12.23;;;11.00;;
46589;SDS011;32313;48.722;9.362;2023-08-31T06:20:24;12.27;;;10.77;;
46589;SDS011;32313;48.722;9.362;2023-08-31T06:22:50;13.93;;;11.50;;
46589;SDS011;32313;48.722;9.362;2023-08-31T06:25:16;13.37;;;10.17;;
46589;SDS011;32313;48.722;9.362;2023-08-31T06:27:44;11.83;;;10.00;;
46589;SDS011;32313;48.722;9.362;2023-08-31T06:30:10;10.20;;;9.13;;
46589;SDS011;32313;48.722;9.362;2023-08-31T06:32:45;11.90;;;10.10;;
46589;SDS011;32313;48.722;9.362;2023-08-31T06:35:12;10.60;;;9.50;;
46589;SDS011;32313;48.722;9.362;2023-08-31T06:37:39;11.83;;;10.50;;
46589;SDS011;32313;48.722;9.362;2023-08-31T06:40:06;10.40;;;9.20;;
46589;SDS011;32313;48.722;9.362;2023-08-31T06:42:33;9.20;;;8.23;;
46589;SDS011;32313;48.722;9.362;2023-08-31T06:44:59;9.13;;;7.97;;
46589;SDS011;32313;48.722;9.362;2023-08-31T06:47:25;19.57;;;9.47;;
46589;SDS011;32313;48.722;9.362;2023-08-31T06:49:50;9.27;;;7.10;;
46589;SDS011;32313;48.722;9.362;2023-08-31T06:52:16;8.67;;;6.07;;
46589;SDS011;32313;48.722;9.362;2023-08-31T06:54:42;7.63;;;6.83;;
46589;SDS011;32313;48.722;9.362;2023-08-31T06:57:08;7.63;;;6.33;;
46589;SDS011;32313;48.722;9.362;2023-08-31T06:59:34;7.07;;;5.97;;
46589;SDS011;32313;48.722;9.362;2023-08-31T07:01:59;6.93;;;5.10;;
46589;SDS011;32313;48.722;9.362;2023-08-31T07:04:26;10.67;;;7.20;;
46589;SDS011;32313;48.722;9.362;2023-08-31T07:06:52;7.10;;;6.40;;
46589;SDS011;32313;48.722;9.362;2023-08-31T07:09:18;7.30;;;5.53;;
46589;SDS011;32313;48.722;9.362;2023-08-31T07:11:43;7.63;;;5.53;;
46589;SDS011;32313;48.722;9.362;2023-08-31T07:14:09;12.20;;;6.57;;
46589;SDS011;32313;48.722;9.362;2023-08-31T07:16:35;5.17;;;4.67;;
46589;SDS011;32313;48.722;9.362;2023-08-31T07:19:01;7.10;;;4.73;;
46589;SDS011;32313;48.722;9.362;2023-08-31T07:21:27;4.97;;;4.50;;
46589;SDS011;32313;48.722;9.362;2023-08-31T07:23:53;6.37;;;4.10;;
46589;SDS011;32313;48.722;9.362;2023-08-31T07:26:20;5.53;;;3.60;;
46589;SDS011;32313;48.722;9.362;2023-08-31T07:28:46;4.97;;;3.27;;
46589;SDS011;32313;48.722;9.362;2023-08-31T07:31:12;4.93;;;3.10;;
46589;SDS011;32313;48.722;9.362;2023-08-31T07:33:38;2.93;;;2.57;;
46589;SDS011;32313;48.722;9.362;2023-08-31T07:36:04;4.47;;;2.97;;
46589;SDS011;32313;48.722;9.362;2023-08-31T07:38:31;4.63;;;3.00;;
46589;SDS011;32313;48.722;9.362;2023-08-31T07:40:58;5.10;;;3.23;;
46589;SDS011;32313;48.722;9.362;2023-08-31T07:43:25;6.90;;;3.13;;
46589;SDS011;32313;48.722;9.362;2023-08-31T07:45:52;4.07;;;3.20;;
46589;SDS011;32313;48.722;9.362;2023-08-31T07:48:18;6.23;;;2.70;;
46589;SDS011;32313;48.722;9.362;2023-08-31T07:50:44;3.53;;;2.70;;
46589;SDS011;32313;48.722;9.362;2023-08-31T07:53:10;4.33;;;3.00;;
46589;SDS011;32313;48.722;9.362;2023-08-31T07:55:36;3.63;;;2.83;;
46589;SDS011;32313;48.722;9.362;2023-08-31T07:58:02;4.37;;;3.10;;
46589;SDS011;32313;48.722;9.362;2023-08-31T08:00:28;5.93;;;3.27;;
46589;SDS011;32313;48.722;9.362;2023-08-31T08:02:54;3.77;;;2.97;;
46589;SDS011;32313;48.722;9.362;2023-08-31T08:05:19;3.13;;;2.80;;
46589;SDS011;32313;48.722;9.362;2023-08-31T08:07:45;3.60;;;2.40;;
46589;SDS011;32313;48.722;9.362;2023-08-31T08:10:11;5.90;;;2.70;;
46589;SDS011;32313;48.722;9.362;2023-08-31T08:12:37;4.33;;;2.90;;
46589;SDS011;32313;48.722;9.362;2023-08-31T08:15:04;5.37;;;3.00;;
46589;SDS011;32313;48.722;9.362;2023-08-31T08:17:32;4.70;;;2.60;;
46589;SDS011;32313;48.722;9.362;2023-08-31T08:19:57;4.43;;;2.73;;
46589;SDS011;32313;48.722;9.362;2023-08-31T08:22:24;3.67;;;2.43;;
46589;SDS011;32313;48.722;9.362;2023-08-31T08:24:50;4.17;;;2.60;;
46589;SDS011;32313;48.722;9.362;2023-08-31T08:27:15;3.47;;;2.47;;
46589;SDS011;32313;48.722;9.362;2023-08-31T08:29:43;5.70;;;2.67;;
46589;SDS011;32313;48.722;9.362;2023-08-31T08:32:08;4.40;;;2.40;;
46589;SDS011;32313;48.722;9.362;2023-08-31T08:34:34;3.60;;;2.20;;
46589;SDS011;32313;48.722;9.362;2023-08-31T08:37:00;3.20;;;2.10;;
46589;SDS011;32313;48.722;9.362;2023-08-31T08:39:25;4.30;;;2.40;;
46589;SDS011;32313;48.722;9.362;2023-08-31T08:41:52;4.00;;;2.63;;
46589;SDS011;32313;48.722;9.362;2023-08-31T08:44:19;3.80;;;2.70;;
46589;SDS011;32313;48.722;9.362;2023-08-31T08:46:48;3.23;;;2.40;;
46589;SDS011;32313;48.722;9.362;2023-08-31T08:49:15;4.40;;;2.87;;
46589;SDS011;32313;48.722;9.362;2023-08-31T08:51:41;3.63;;;2.50;;
46589;SDS011;32313;48.722;9.362;2023-08-31T08:54:07;4.50;;;2.73;;
46589;SDS011;32313;48.722;9.362;2023-08-31T08:56:33;3.03;;;2.60;;
46589;SDS011;32313;48.722;9.362;2023-08-31T08:58:59;5.10;;;2.60;;
46589;SDS011;32313;48.722;9.362;2023-08-31T09:01:25;5.23;;;2.40;;
46589;SDS011;32313;48.722;9.362;2023-08-31T09:03:52;4.93;;;2.70;;
46589;SDS011;32313;48.722;9.362;2023-08-31T09:06:19;5.00;;;2.90;;
46589;SDS011;32313;48.722;9.362;2023-08-31T09:08:52;4.80;;;2.40;;
46589;SDS011;32313;48.722;9.362;2023-08-31T09:11:21;3.93;;;2.30;;
46589;SDS011;32313;48.722;9.362;2023-08-31T09:13:48;6.50;;;2.80;;
46589;SDS011;32313;48.722;9.362;2023-08-31T09:18:57;4.77;;;2.70;;
46589;SDS011;32313;48.722;9.362;2023-08-31T09:21:36;5.80;;;2.27;;
46589;SDS011;32313;48.722;9.362;2023-08-31T09:24:05;5.53;;;2.60;;
46589;SDS011;32313;48.722;9.362;2023-08-31T09:26:39;3.40;;;2.63;;
46589;SDS011;32313;48.722;9.362;2023-08-31T09:29:08;3.90;;;2.80;;
46589;SDS011;32313;48.722;9.362;2023-08-31T09:31:35;3.37;;;2.73;;
46589;SDS011;32313;48.722;9.362;2023-08-31T09:34:02;4.90;;;2.87;;
46589;SDS011;32313;48.722;9.362;2023-08-31T09:36:28;5.93;;;2.50;;
46589;SDS011;32313;48.722;9.362;2023-08-31T09:38:56;4.63;;;2.60;;
46589;SDS011;32313;48.722;9.362;2023-08-31T09:41:23;4.73;;;3.10;;
46589;SDS011;32313;48.722;9.362;2023-08-31T09:43:49;6.37;;;2.90;;
46589;SDS011;32313;48.722;9.362;2023-08-31T09:46:15;3.87;;;2.40;;
46589;SDS011;32313;48.722;9.362;2023-08-31T09:48:41;4.30;;;3.03;;
46589;SDS011;32313;48.722;9.362;2023-08-31T09:51:08;7.80;;;2.87;;
46589;SDS011;32313;48.722;9.362;2023-08-31T09:53:36;4.50;;;2.40;;
46589;SDS011;32313;48.722;9.362;2023-08-31T09:56:02;3.70;;;2.60;;
46589;SDS011;32313;48.722;9.362;2023-08-31T09:58:30;3.03;;;2.60;;
46589;SDS011;32313;48.722;9.362;2023-08-31T10:00:57;2.87;;;2.30;;
46589;SDS011;32313;48.722;9.362;2023-08-31T10:03:24;3.80;;;2.37;;
46589;SDS011;32313;48.722;9.362;2023-08-31T10:05:52;3.33;;;2.40;;
46589;SDS011;32313;48.722;9.362;2023-08-31T10:08:20;3.87;;;2.73;;
46589;SDS011;32313;48.722;9.362;2023-08-31T10:10:46;4.67;;;3.07;;
46589;SDS011;32313;48.722;9.362;2023-08-31T10:13:17;4.20;;;2.30;;
46589;SDS011;32313;48.722;9.362;2023-08-31T10:15:46;3.47;;;2.63;;
46589;SDS011;32313;48.722;9.362;2023-08-31T10:18:14;3.03;;;2.50;;
46589;SDS011;32313;48.722;9.362;2023-08-31T10:20:42;4.83;;;2.67;;
46589;SDS011;32313;48.722;9.362;2023-08-31T10:23:09;3.90;;;2.60;;
46589;SDS011;32313;48.722;9.362;2023-08-31T10:26:21;2.80;;;2.20;;
46589;SDS011;32313;48.722;9.362;2023-08-31T10:28:22;6.03;;;2.60;;
46589;SDS011;32313;48.722;9.362;2023-08-31T10:31:04;4.97;;;2.73;;
46589;SDS011;32313;48.722;9.362;2023-08-31T10:33:44;4.00;;;2.37;;
46589;SDS011;32313;48.722;9.362;2023-08-31T10:38:46;5.13;;;2.80;;
46589;SDS011;32313;48.722;9.362;2023-08-31T10:41:34;4.27;;;2.83;;
46589;SDS011;32313;48.722;9.362;2023-08-31T10:44:00;3.23;;;2.47;;
46589;SDS011;32313;48.722;9.362;2023-08-31T10:46:42;5.87;;;2.70;;
46589;SDS011;32313;48.722;9.362;2023-08-31T10:51:35;4.50;;;2.63;;
46589;SDS011;32313;48.722;9.362;2023-08-31T10:56:30;6.87;;;2.70;;
46589;SDS011;32313;48.722;9.362;2023-08-31T10:58:59;4.93;;;2.73;;
46589;SDS011;32313;48.722;9.362;2023-08-31T11:04:28;3.00;;;2.70;;
46589;SDS011;32313;48.722;9.362;2023-08-31T11:09:40;4.57;;;2.90;;
46589;SDS011;32313;48.722;9.362;2023-08-31T11:12:07;4.20;;;2.67;;
46589;SDS011;32313;48.722;9.362;2023-08-31T11:14:33;4.50;;;2.70;;
46589;SDS011;32313;48.722;9.362;2023-08-31T11:16:59;4.83;;;2.53;;
46589;SDS011;32313;48.722;9.362;2023-08-31T11:19:26;6.00;;;2.80;;
46589;SDS011;32313;48.722;9.362;2023-08-31T11:21:53;5.87;;;2.83;;
46589;SDS011;32313;48.722;9.362;2023-08-31T11:24:19;4.37;;;2.90;;
46589;SDS011;32313;48.722;9.362;2023-08-31T11:26:50;5.07;;;3.40;;
46589;SDS011;32313;48.722;9.362;2023-08-31T11:29:16;4.60;;;2.53;;
46589;SDS011;32313;48.722;9.362;2023-08-31T11:31:42;3.70;;;2.80;;
46589;SDS011;32313;48.722;9.362;2023-08-31T11:34:14;4.10;;;2.70;;
46589;SDS011;32313;48.722;9.362;2023-08-31T11:36:41;5.00;;;2.60;;
46589;SDS011;32313;48.722;9.362;2023-08-31T11:39:11;4.87;;;2.70;;
46589;SDS011;32313;48.722;9.362;2023-08-31T11:41:37;5.37;;;2.93;;
46589;SDS011;32313;48.722;9.362;2023-08-31T11:44:10;5.53;;;3.13;;
46589;SDS011;32313;48.722;9.362;2023-08-31T11:46:38;4.13;;;2.50;;
46589;SDS011;32313;48.722;9.362;2023-08-31T11:49:06;4.00;;;2.63;;
46589;SDS011;32313;48.722;9.362;2023-08-31T11:51:33;4.37;;;2.90;;
46589;SDS011;32313;48.722;9.362;2023-08-31T11:54:03;3.53;;;2.23;;
46589;SDS011;32313;48.722;9.362;2023-08-31T11:56:42;9.10;;;3.27;;
46589;SDS011;32313;48.722;9.362;2023-08-31T11:59:09;3.27;;;2.53;;
46589;SDS011;32313;48.722;9.362;2023-08-31T12:01:37;5.63;;;2.80;;
46589;SDS011;32313;48.722;9.362;2023-08-31T12:04:11;5.13;;;2.80;;
46589;SDS011;32313;48.722;9.362;2023-08-31T12:06:37;5.33;;;2.73;;
46589;SDS011;32313;48.722;9.362;2023-08-31T12:09:04;3.83;;;2.20;;
46589;SDS011;32313;48.722;9.362;2023-08-31T12:11:31;3.67;;;2.37;;
46589;SDS011;32313;48.722;9.362;2023-08-31T12:14:03;6.67;;;2.80;;
46589;SDS011;32313;48.722;9.362;2023-08-31T12:16:43;4.47;;;2.83;;
46589;SDS011;32313;48.722;9.362;2023-08-31T12:19:09;3.10;;;2.37;;
46589;SDS011;32313;48.722;9.362;2023-08-31T12:21:35;4.77;;;2.60;;
46589;SDS011;32313;48.722;9.362;2023-08-31T12:24:01;3.97;;;2.50;;
46589;SDS011;32313;48.722;9.362;2023-08-31T12:26:28;3.00;;;2.50;;
46589;SDS011;32313;48.722;9.362;2023-08-31T12:28:54;4.90;;;2.80;;
46589;SDS011;32313;48.722;9.362;2023-08-31T12:31:20;3.80;;;2.40;;
46589;SDS011;32313;48.722;9.362;2023-08-31T12:33:47;5.60;;;2.93;;
46589;SDS011;32313;48.722;9.362;2023-08-31T12:36:13;6.70;;;2.87;;
46589;SDS011;32313;48.722;9.362;2023-08-31T12:38:39;6.57;;;2.97;;
46589;SDS011;32313;48.722;9.362;2023-08-31T12:41:04;4.20;;;2.60;;
46589;SDS011;32313;48.722;9.362;2023-08-31T12:43:30;5.57;;;2.80;;
46589;SDS011;32313;48.722;9.362;2023-08-31T12:45:56;4.33;;;2.60;;
46589;SDS011;32313;48.722;9.362;2023-08-31T12:48:22;3.60;;;2.67;;
46589;SDS011;32313;48.722;9.362;2023-08-31T12:50:48;4.93;;;2.80;;
46589;SDS011;32313;48.722;9.362;2023-08-31T12:53:14;5.37;;;2.77;;
46589;SDS011;32313;48.722;9.362;2023-08-31T12:55:40;5.83;;;3.30;;
46589;SDS011;32313;48.722;9.362;2023-08-31T12:58:06;4.50;;;2.50;;
46589;SDS011;32313;48.722;9.362;2023-08-31T13:00:32;4.43;;;2.93;;
46589;SDS011;32313;48.722;9.362;2023-08-31T13:02:58;4.00;;;2.40;;
46589;SDS011;32313;48.722;9.362;2023-08-31T13:05:26;3.60;;;2.53;;
46589;SDS011;32313;48.722;9.362;2023-08-31T13:07:53;4.07;;;2.73;;
46589;SDS011;32313;48.722;9.362;2023-08-31T13:10:19;5.03;;;2.50;;
46589;SDS011;32313;48.722;9.362;2023-08-31T13:12:45;3.90;;;2.70;;
46589;SDS011;32313;48.722;9.362;2023-08-31T13:15:11;4.07;;;2.60;;
46589;SDS011;32313;48.722;9.362;2023-08-31T13:17:38;5.50;;;2.77;;
46589;SDS011;32313;48.722;9.362;2023-08-31T13:20:04;7.50;;;2.83;;
46589;SDS011;32313;48.722;9.362;2023-08-31T13:22:30;6.13;;;2.83;;
46589;SDS011;32313;48.722;9.362;2023-08-31T13:24:56;4.80;;;2.90;;
46589;SDS011;32313;48.722;9.362;2023-08-31T13:27:22;3.77;;;2.70;;
46589;SDS011;32313;48.722;9.362;2023-08-31T13:29:47;4.73;;;2.40;;
46589;SDS011;32313;48.722;9.362;2023-08-31T13:32:13;3.77;;;2.73;;
46589;SDS011;32313;48.722;9.362;2023-08-31T13:34:39;5.47;;;2.87;;
46589;SDS011;32313;48.722;9.362;2023-08-31T13:37:05;4.00;;;2.90;;
46589;SDS011;32313;48.722;9.362;2023-08-31T13:39:31;4.50;;;2.83;;
46589;SDS011;32313;48.722;9.362;2023-08-31T13:41:59;5.87;;;2.90;;
46589;SDS011;32313;48.722;9.362;2023-08-31T13:44:27;6.20;;;3.00;;
46589;SDS011;32313;48.722;9.362;2023-08-31T13:46:53;11.13;;;3.10;;
46589;SDS011;32313;48.722;9.362;2023-08-31T13:49:19;4.13;;;2.83;;
46589;SDS011;32313;48.722;9.362;2023-08-31T13:51:44;3.37;;;2.67;;
46589;SDS011;32313;48.722;9.362;2023-08-31T13:54:10;4.70;;;2.70;;
46589;SDS011;32313;48.722;9.362;2023-08-31T13:56:36;4.43;;;3.30;;
46589;SDS011;32313;48.722;9.362;2023-08-31T13:59:02;4.77;;;2.80;;
46589;SDS011;32313;48.722;9.362;2023-08-31T14:01:30;5.93;;;3.10;;
46589;SDS011;32313;48.722;9.362;2023-08-31T14:03:55;5.20;;;2.77;;
46589;SDS011;32313;48.722;9.362;2023-08-31T14:06:21;4.57;;;2.73;;
46589;SDS011;32313;48.722;9.362;2023-08-31T14:08:47;4.23;;;2.50;;
46589;SDS011;32313;48.722;9.362;2023-08-31T14:11:13;4.73;;;2.40;;
46589;SDS011;32313;48.722;9.362;2023-08-31T14:13:39;6.03;;;2.60;;
46589;SDS011;32313;48.722;9.362;2023-08-31T14:16:05;3.93;;;2.80;;
46589;SDS011;32313;48.722;9.362;2023-08-31T14:18:32;3.20;;;2.60;;
46589;SDS011;32313;48.722;9.362;2023-08-31T14:20:58;27.07;;;3.97;;
46589;SDS011;32313;48.722;9.362;2023-08-31T14:23:25;5.10;;;2.37;;
46589;SDS011;32313;48.722;9.362;2023-08-31T14:25:50;4.13;;;2.60;;
46589;SDS011;32313;48.722;9.362;2023-08-31T14:28:16;3.80;;;2.30;;
46589;SDS011;32313;48.722;9.362;2023-08-31T14:30:42;4.00;;;2.33;;
46589;SDS011;32313;48.722;9.362;2023-08-31T14:33:07;3.20;;;2.40;;
46589;SDS011;32313;48.722;9.362;2023-08-31T14:35:37;3.63;;;2.60;;
46589;SDS011;32313;48.722;9.362;2023-08-31T14:38:03;4.83;;;2.50;;
46589;SDS011;32313;48.722;9.362;2023-08-31T14:40:29;8.50;;;3.33;;
46589;SDS011;32313;48.722;9.362;2023-08-31T14:42:54;7.43;;;2.80;;
46589;SDS011;32313;48.722;9.362;2023-08-31T14:45:20;5.13;;;2.70;;
46589;SDS011;32313;48.722;9.362;2023-08-31T14:47:46;4.20;;;2.57;;
46589;SDS011;32313;48.722;9.362;2023-08-31T14:50:12;6.30;;;3.00;;
46589;SDS011;32313;48.722;9.362;2023-08-31T14:52:37;4.80;;;3.10;;
46589;SDS011;32313;48.722;9.362;2023-08-31T14:55:03;5.90;;;2.80;;
46589;SDS011;32313;48.722;9.362;2023-08-31T14:57:30;4.53;;;2.63;;
46589;SDS011;32313;48.722;9.362;2023-08-31T14:59:55;5.23;;;2.63;;
46589;SDS011;32313;48.722;9.362;2023-08-31T15:02:24;3.73;;;2.27;;
46589;SDS011;32313;48.722;9.362;2023-08-31T15:04:49;3.93;;;2.67;;